Time,TemperatureF,DewpointF,PressureIn,WindDirection,WindDirectionDegrees,WindSpeedMPH,WindSpeedGustMPH,Humidity,HourlyPrecipIn,Conditions,Clouds,dailyrainin,SoftwareType,DateUTC
2013-04-03 00:07:00,54.4,20.0,30.10,North,349,0.0,6.0,26,0.00,,,0.00,weatherlink.com 1.10,2013-04-03 04:07:00,
2013-04-03 00:22:00,54.2,20.0,30.10,East,101,0.0,4.0,26,0.00,,,0.00,weatherlink.com 1.10,2013-04-03 04:22:00,
2013-04-03 00:37:00,53.9,20.0,30.11,NNW,328,1.0,3.0,26,0.00,,,0.00,weatherlink.com 1.10,2013-04-03 04:37:00,
2013-04-03 00:52:00,53.9,20.0,30.11,NE,44,1.0,5.0,27,0.00,,,0.00,weatherlink.com 1.10,2013-04-03 04:52:00,
2013-04-03 01:07:00,53.6,20.0,30.12,ENE,65,0.0,6.0,27,0.00,,,0.00,weatherlink.com 1.10,2013-04-03 05:07:00,
2013-04-03 01:22:00,53.5,20.0,30.12,WNW,299,0.0,5.0,27,0.00,,,0.00,weatherlink.com 1.10,2013-04-03 05:22:00,
2013-04-03 01:37:00,53.2,21.0,30.13,ENE,67,0.0,5.0,28,0.00,,,0.00,weatherlink.com 1.10,2013-04-03 05:37:00,
2013-04-03 01:53:00,52.9,20.0,30.13,NW,313,0.0,2.0,27,0.00,,,0.00,weatherlink.com 1.10,2013-04-03 05:53:00,
2013-04-03 02:08:00,52.8,21.0,30.14,North,11,1.0,2.0,29,0.00,,,0.00,weatherlink.com 1.10,2013-04-03 06:08:00,
2013-04-03 02:23:00,52.8,20.0,30.14,NNW,345,0.0,3.0,28,0.00,,,0.00,weatherlink.com 1.10,2013-04-03 06:23:00,
2013-04-03 02:38:00,52.6,19.0,30.14,ENE,74,0.0,6.0,27,0.00,,,0.00,weatherlink.com 1.10,2013-04-03 06:38:00,
2013-04-03 02:53:00,52.3,21.0,30.13,East,90,2.0,3.0,29,0.00,,,0.00,weatherlink.com 1.10,2013-04-03 06:53:00,
2013-04-03 03:08:00,52.2,20.0,30.14,West,271,0.0,4.0,28,0.00,,,0.00,weatherlink.com 1.10,2013-04-03 07:08:00,
2013-04-03 03:23:00,52.0,20.0,30.13,North,10,2.0,3.0,28,0.00,,,0.00,weatherlink.com 1.10,2013-04-03 07:23:00,
2013-04-03 03:38:00,51.7,19.0,30.13,ESE,123,1.0,4.0,27,0.00,,,0.00,weatherlink.com 1.10,2013-04-03 07:38:00,
2013-04-03 03:53:00,51.6,18.0,30.12,ENE,74,1.0,6.0,27,0.00,,,0.00,weatherlink.com 1.10,2013-04-03 07:53:00,
2013-04-03 04:08:00,51.4,19.0,30.12,ENE,74,4.0,9.0,28,0.00,,,0.00,weatherlink.com 1.10,2013-04-03 08:08:00,
2013-04-03 04:23:00,51.0,19.0,30.13,ENE,59,2.0,7.0,28,0.00,,,0.00,weatherlink.com 1.10,2013-04-03 08:23:00,
2013-04-03 04:38:00,50.5,15.0,30.13,ENE,76,0.0,5.0,24,0.00,,,0.00,weatherlink.com 1.10,2013-04-03 08:38:00,
2013-04-03 04:53:00,50.1,14.0,30.13,East,97,1.0,8.0,24,0.00,,,0.00,weatherlink.com 1.10,2013-04-03 08:53:00,
2013-04-03 05:08:00,49.8,14.0,30.14,SSE,165,0.0,3.0,24,0.00,,,0.00,weatherlink.com 1.10,2013-04-03 09:08:00,
2013-04-03 05:23:00,49.5,15.0,30.14,East,91,1.0,3.0,25,0.00,,,0.00,weatherlink.com 1.10,2013-04-03 09:23:00,
2013-04-03 05:38:00,49.2,15.0,30.13,NNE,29,1.0,7.0,25,0.00,,,0.00,weatherlink.com 1.10,2013-04-03 09:38:00,
2013-04-03 05:53:00,48.6,14.0,30.14,ENE,61,1.0,7.0,25,0.00,,,0.00,weatherlink.com 1.10,2013-04-03 09:53:00,
2013-04-03 06:08:00,47.9,14.0,30.16,ENE,64,0.0,3.0,26,0.00,,,0.00,weatherlink.com 1.10,2013-04-03 10:08:00,
2013-04-03 06:23:00,47.6,16.0,30.16,ENE,65,1.0,3.0,28,0.00,,,0.00,weatherlink.com 1.10,2013-04-03 10:23:00,
2013-04-03 06:38:00,47.3,15.0,30.18,NNE,19,0.0,5.0,27,0.00,,,0.00,weatherlink.com 1.10,2013-04-03 10:38:00,
2013-04-03 06:53:00,47.0,14.0,30.19,ENE,78,1.0,6.0,27,0.00,,,0.00,weatherlink.com 1.10,2013-04-03 10:53:00,
2013-04-03 07:08:00,46.8,15.0,30.20,WSW,244,0.0,1.0,28,0.00,,,0.00,weatherlink.com 1.10,2013-04-03 11:08:00,
2013-04-03 07:23:00,46.4,14.0,30.21,ENE,76,1.0,8.0,27,0.00,,,0.00,weatherlink.com 1.10,2013-04-03 11:23:00,
2013-04-03 07:38:00,45.5,14.0,30.21,ENE,65,0.0,2.0,28,0.00,,,0.00,weatherlink.com 1.10,2013-04-03 11:38:00,
2013-04-03 07:53:00,45.1,14.0,30.22,East,91,1.0,3.0,29,0.00,,,0.00,weatherlink.com 1.10,2013-04-03 11:53:00,
2013-04-03 08:08:00,44.9,14.0,30.24,East,85,1.0,6.0,29,0.00,,,0.00,weatherlink.com 1.10,2013-04-03 12:08:00,
2013-04-03 08:23:00,45.4,13.0,30.25,NNW,337,1.0,7.0,27,0.00,,,0.00,weatherlink.com 1.10,2013-04-03 12:23:00,
2013-04-03 08:38:00,45.7,14.0,30.25,East,86,0.0,9.0,28,0.00,,,0.00,weatherlink.com 1.10,2013-04-03 12:38:00,
2013-04-03 08:53:00,46.4,14.0,30.25,East,88,0.0,7.0,27,0.00,,,0.00,weatherlink.com 1.10,2013-04-03 12:53:00,
2013-04-03 09:08:00,47.4,15.0,30.25,NNW,334,0.0,5.0,27,0.00,,,0.00,weatherlink.com 1.10,2013-04-03 13:08:00,
2013-04-03 09:23:00,48.3,15.0,30.26,East,98,3.0,9.0,26,0.00,,,0.00,weatherlink.com 1.10,2013-04-03 13:23:00,
2013-04-03 09:38:00,48.3,15.0,30.25,East,79,2.0,7.0,26,0.00,,,0.00,weatherlink.com 1.10,2013-04-03 13:38:00,
2013-04-03 09:53:00,48.9,14.0,30.24,ENE,64,0.0,7.0,25,0.00,,,0.00,weatherlink.com 1.10,2013-04-03 13:53:00,
2013-04-03 10:08:00,49.4,16.0,30.24,NNE,22,0.0,8.0,26,0.00,,,0.00,weatherlink.com 1.10,2013-04-03 14:08:00,
2013-04-03 10:23:00,49.9,15.0,30.24,East,84,1.0,5.0,25,0.00,,,0.00,weatherlink.com 1.10,2013-04-03 14:23:00,
2013-04-03 10:38:00,50.5,16.0,30.25,NE,35,0.0,9.0,25,0.00,,,0.00,weatherlink.com 1.10,2013-04-03 14:38:00,
2013-04-03 10:53:00,51.6,16.0,30.26,NNW,340,1.0,3.0,24,0.00,,,0.00,weatherlink.com 1.10,2013-04-03 14:53:00,
2013-04-03 11:08:00,51.6,18.0,30.25,East,92,0.0,5.0,26,0.00,,,0.00,weatherlink.com 1.10,2013-04-03 15:08:00,
2013-04-03 11:23:00,51.7,16.0,30.25,ENE,65,0.0,7.0,24,0.00,,,0.00,weatherlink.com 1.10,2013-04-03 15:23:00,
2013-04-03 11:38:00,52.5,17.0,30.25,SE,137,1.0,5.0,25,0.00,,,0.00,weatherlink.com 1.10,2013-04-03 15:38:00,
2013-04-03 12:23:00,54.5,15.0,30.24,ENE,73,3.0,3.0,21,0.00,,,0.00,weatherlink.com 1.10,2013-04-03 16:23:00,
2013-04-03 12:54:00,55.6,18.0,30.22,SSE,167,0.0,8.0,23,0.00,,,0.00,weatherlink.com 1.10,2013-04-03 16:54:00,
2013-04-03 13:09:00,57.0,18.0,30.22,SW,228,0.0,3.0,22,0.00,,,0.00,weatherlink.com 1.10,2013-04-03 17:09:00,
2013-04-03 13:24:00,57.8,20.0,30.21,SW,229,0.0,5.0,23,0.00,,,0.00,weatherlink.com 1.10,2013-04-03 17:24:00,
2013-04-03 13:54:00,58.0,18.0,30.20,NE,55,0.0,5.0,21,0.00,,,0.00,weatherlink.com 1.10,2013-04-03 17:54:00,
2013-04-03 14:09:00,59.3,19.0,30.19,ENE,57,0.0,3.0,21,0.00,,,0.00,weatherlink.com 1.10,2013-04-03 18:09:00,
2013-04-03 14:24:00,60.4,19.0,30.19,East,88,1.0,4.0,20,0.00,,,0.00,weatherlink.com 1.10,2013-04-03 18:24:00,
2013-04-03 14:39:00,58.9,19.0,30.19,West,274,0.0,6.0,21,0.00,,,0.00,weatherlink.com 1.10,2013-04-03 18:39:00,
2013-04-03 15:09:00,59.8,20.0,30.19,ESE,121,0.0,4.0,21,0.00,,,0.00,weatherlink.com 1.10,2013-04-03 19:09:00,
2013-04-03 15:24:00,60.2,20.0,30.18,ENE,65,1.0,3.0,21,0.00,,,0.00,weatherlink.com 1.10,2013-04-03 19:24:00,
2013-04-03 15:39:00,60.4,20.0,30.18,ENE,68,0.0,3.0,21,0.00,,,0.00,weatherlink.com 1.10,2013-04-03 19:39:00,
2013-04-03 15:54:00,60.7,20.0,30.18,WNW,292,0.0,3.0,21,0.00,,,0.00,weatherlink.com 1.10,2013-04-03 19:54:00,
2013-04-03 16:09:00,60.9,19.0,30.18,ENE,57,0.0,4.0,20,0.00,,,0.00,weatherlink.com 1.10,2013-04-03 20:09:00,
2013-04-03 16:24:00,60.2,20.0,30.17,NE,51,1.0,4.0,21,0.00,,,0.00,weatherlink.com 1.10,2013-04-03 20:24:00,
2013-04-03 16:39:00,60.4,21.0,30.18,East,80,0.0,5.0,22,0.00,,,0.00,weatherlink.com 1.10,2013-04-03 20:39:00,
2013-04-03 17:09:00,59.8,21.0,30.18,NW,311,1.0,7.0,22,0.00,,,0.00,weatherlink.com 1.10,2013-04-03 21:09:00,
2013-04-03 17:24:00,59.9,20.0,30.19,NNE,12,0.0,2.0,21,0.00,,,0.00,weatherlink.com 1.10,2013-04-03 21:24:00,
2013-04-03 17:39:00,59.9,20.0,30.19,NE,34,0.0,3.0,21,0.00,,,0.00,weatherlink.com 1.10,2013-04-03 21:39:00,
2013-04-03 17:54:00,59.9,20.0,30.18,NW,317,0.0,2.0,21,0.00,,,0.00,weatherlink.com 1.10,2013-04-03 21:54:00,
2013-04-03 18:09:00,59.3,20.0,30.18,ENE,67,0.0,4.0,22,0.00,,,0.00,weatherlink.com 1.10,2013-04-03 22:09:00,
2013-04-03 18:24:00,58.7,18.0,30.18,East,80,0.0,3.0,20,0.00,,,0.00,weatherlink.com 1.10,2013-04-03 22:24:00,
2013-04-03 18:39:00,58.4,19.0,30.18,NW,317,0.0,2.0,22,0.00,,,0.00,weatherlink.com 1.10,2013-04-03 22:39:00,
2013-04-03 18:54:00,58.0,17.0,30.18,NW,317,0.0,0.0,20,0.00,,,0.00,weatherlink.com 1.10,2013-04-03 22:54:00,
2013-04-03 19:09:00,57.6,18.0,30.18,ENE,65,0.0,2.0,21,0.00,,,0.00,weatherlink.com 1.10,2013-04-03 23:09:00,
2013-04-03 19:39:00,56.5,20.0,30.19,ENE,69,0.0,1.0,24,0.00,,,0.00,weatherlink.com 1.10,2013-04-03 23:39:00,
2013-04-03 19:54:00,55.9,22.0,30.19,ENE,69,0.0,0.0,27,0.00,,,0.00,weatherlink.com 1.10,2013-04-03 23:54:00,
2013-04-03 20:09:00,55.1,21.0,30.19,ENE,69,0.0,0.0,27,0.00,,,0.00,weatherlink.com 1.10,2013-04-04 00:09:00,
2013-04-03 20:24:00,54.8,22.0,30.20,ENE,69,0.0,0.0,28,0.00,,,0.00,weatherlink.com 1.10,2013-04-04 00:24:00,
2013-04-03 20:39:00,54.4,22.0,30.20,ENE,69,0.0,0.0,28,0.00,,,0.00,weatherlink.com 1.10,2013-04-04 00:39:00,
2013-04-03 20:54:00,54.1,22.0,30.21,ENE,69,0.0,0.0,29,0.00,,,0.00,weatherlink.com 1.10,2013-04-04 00:54:00,
2013-04-03 21:09:00,53.5,22.0,30.21,ENE,69,0.0,0.0,29,0.00,,,0.00,weatherlink.com 1.10,2013-04-04 01:09:00,
2013-04-03 21:24:00,53.1,22.0,30.23,ENE,69,0.0,0.0,30,0.00,,,0.00,weatherlink.com 1.10,2013-04-04 01:24:00,
2013-04-03 21:39:00,52.8,22.0,30.23,ENE,69,0.0,0.0,30,0.00,,,0.00,weatherlink.com 1.10,2013-04-04 01:39:00,
2013-04-03 21:54:00,52.3,24.0,30.24,ENE,69,0.0,0.0,33,0.00,,,0.00,weatherlink.com 1.10,2013-04-04 01:54:00,
2013-04-03 22:09:00,52.2,25.0,30.24,ENE,69,0.0,0.0,35,0.00,,,0.00,weatherlink.com 1.10,2013-04-04 02:09:00,
2013-04-03 22:24:00,51.9,24.0,30.24,ENE,69,0.0,0.0,34,0.00,,,0.00,weatherlink.com 1.10,2013-04-04 02:24:00,
2013-04-03 22:39:00,51.7,25.0,30.24,ENE,69,0.0,0.0,35,0.00,,,0.00,weatherlink.com 1.10,2013-04-04 02:39:00,
2013-04-03 22:54:00,51.7,23.0,30.24,ENE,69,0.0,0.0,32,0.00,,,0.00,weatherlink.com 1.10,2013-04-04 02:54:00,
2013-04-03 23:09:00,51.7,23.0,30.24,ENE,69,0.0,0.0,33,0.00,,,0.00,weatherlink.com 1.10,2013-04-04 03:09:00,
2013-04-03 23:24:00,51.6,22.0,30.24,ENE,69,0.0,0.0,32,0.00,,,0.00,weatherlink.com 1.10,2013-04-04 03:24:00,
2013-04-03 23:39:00,51.3,26.0,30.24,ENE,69,0.0,0.0,37,0.00,,,0.00,weatherlink.com 1.10,2013-04-04 03:39:00,
2013-04-03 23:54:00,50.7,24.0,30.25,ENE,69,0.0,0.0,35,0.00,,,0.00,weatherlink.com 1.10,2013-04-04 03:54:00,